sensor_id;sensor_type;location;lat;lon;timestamp;P1;durP1;ratioP1;P2;durP2;ratioP2
16093;SDS011;8151;47.824;12.092;2023-04-30T00:00:08;5.40;;;3.17;;
16093;SDS011;8151;47.824;12.092;2023-04-30T00:02:47;4.63;;;3.67;;
16093;SDS011;8151;47.824;12.092;2023-04-30T00:05:17;3.70;;;3.40;;
16093;SDS011;8151;47.824;12.092;2023-04-30T00:07:46;4.13;;;3.60;;
16093;SDS011;8151;47.824;12.092;2023-04-30T00:10:15;5.07;;;3.43;;
16093;SDS011;8151;47.824;12.092;2023-04-30T00:12:43;4.37;;;3.97;;
16093;SDS011;8151;47.824;12.092;2023-04-30T00:15:11;4.47;;;3.87;;
16093;SDS011;8151;47.824;12.092;2023-04-30T00:17:40;5.03;;;3.63;;
16093;SDS011;8151;47.824;12.092;2023-04-30T00:20:10;3.87;;;3.40;;
16093;SDS011;8151;47.824;12.092;2023-04-30T00:22:39;3.97;;;3.40;;
16093;SDS011;8151;47.824;12.092;2023-04-30T00:25:09;3.60;;;3.30;;
16093;SDS011;8151;47.824;12.092;2023-04-30T00:27:39;4.33;;;3.93;;
16093;SDS011;8151;47.824;12.092;2023-04-30T00:30:07;4.67;;;3.67;;
16093;SDS011;8151;47.824;12.092;2023-04-30T00:32:38;6.23;;;3.33;;
16093;SDS011;8151;47.824;12.092;2023-04-30T00:35:06;4.43;;;3.63;;
16093;SDS011;8151;47.824;12.092;2023-04-30T00:37:39;3.70;;;3.40;;
16093;SDS011;8151;47.824;12.092;2023-04-30T00:40:12;4.40;;;3.97;;
16093;SDS011;8151;47.824;12.092;2023-04-30T00:42:41;4.23;;;3.50;;
16093;SDS011;8151;47.824;12.092;2023-04-30T00:45:11;4.23;;;3.80;;
16093;SDS011;8151;47.824;12.092;2023-04-30T00:47:39;4.97;;;4.47;;
16093;SDS011;8151;47.824;12.092;2023-04-30T00:50:10;4.87;;;4.03;;
16093;SDS011;8151;47.824;12.092;2023-04-30T00:52:41;4.20;;;3.80;;
16093;SDS011;8151;47.824;12.092;2023-04-30T00:55:12;5.33;;;4.47;;
16093;SDS011;8151;47.824;12.092;2023-04-30T00:57:50;4.97;;;3.90;;
16093;SDS011;8151;47.824;12.092;2023-04-30T01:00:20;4.40;;;3.87;;
16093;SDS011;8151;47.824;12.092;2023-04-30T01:02:49;5.27;;;4.20;;
16093;SDS011;8151;47.824;12.092;2023-04-30T01:05:17;4.23;;;3.83;;
16093;SDS011;8151;47.824;12.092;2023-04-30T01:07:46;4.77;;;4.20;;
16093;SDS011;8151;47.824;12.092;2023-04-30T01:10:16;4.13;;;3.73;;
16093;SDS011;8151;47.824;12.092;2023-04-30T01:12:49;4.87;;;4.00;;
16093;SDS011;8151;47.824;12.092;2023-04-30T01:15:23;6.57;;;3.67;;
16093;SDS011;8151;47.824;12.092;2023-04-30T01:18:00;4.03;;;3.37;;
16093;SDS011;8151;47.824;12.092;2023-04-30T01:20:33;3.87;;;3.50;;
16093;SDS011;8151;47.824;12.092;2023-04-30T01:23:10;5.87;;;3.40;;
16093;SDS011;8151;47.824;12.092;2023-04-30T01:26:02;3.60;;;3.30;;
16093;SDS011;8151;47.824;12.092;2023-04-30T01:28:42;3.23;;;2.63;;
16093;SDS011;8151;47.824;12.092;2023-04-30T01:31:22;5.90;;;2.70;;
16093;SDS011;8151;47.824;12.092;2023-04-30T01:33:51;3.37;;;3.00;;
16093;SDS011;8151;47.824;12.092;2023-04-30T01:36:29;3.67;;;3.37;;
16093;SDS011;8151;47.824;12.092;2023-04-30T01:39:10;5.13;;;3.83;;
16093;SDS011;8151;47.824;12.092;2023-04-30T01:41:54;4.47;;;3.67;;
16093;SDS011;8151;47.824;12.092;2023-04-30T01:44:42;3.70;;;3.40;;
16093;SDS011;8151;47.824;12.092;2023-04-30T01:47:23;4.30;;;3.70;;
16093;SDS011;8151;47.824;12.092;2023-04-30T01:50:03;4.30;;;3.90;;
16093;SDS011;8151;47.824;12.092;2023-04-30T01:52:43;4.27;;;3.53;;
16093;SDS011;8151;47.824;12.092;2023-04-30T01:55:17;5.00;;;3.93;;
16093;SDS011;8151;47.824;12.092;2023-04-30T01:57:53;4.10;;;3.70;;
16093;SDS011;8151;47.824;12.092;2023-04-30T02:00:26;4.23;;;3.67;;
16093;SDS011;8151;47.824;12.092;2023-04-30T02:02:58;3.83;;;3.40;;
16093;SDS011;8151;47.824;12.092;2023-04-30T02:05:26;4.20;;;3.80;;
16093;SDS011;8151;47.824;12.092;2023-04-30T02:07:55;4.30;;;3.93;;
16093;SDS011;8151;47.824;12.092;2023-04-30T02:10:24;4.83;;;3.90;;
16093;SDS011;8151;47.824;12.092;2023-04-30T02:12:53;4.20;;;3.80;;
16093;SDS011;8151;47.824;12.092;2023-04-30T02:15:21;3.97;;;3.40;;
16093;SDS011;8151;47.824;12.092;2023-04-30T02:17:54;5.87;;;4.30;;
16093;SDS011;8151;47.824;12.092;2023-04-30T02:20:23;5.43;;;3.90;;
16093;SDS011;8151;47.824;12.092;2023-04-30T02:22:51;4.97;;;4.00;;
16093;SDS011;8151;47.824;12.092;2023-04-30T02:25:19;4.23;;;3.80;;
16093;SDS011;8151;47.824;12.092;2023-04-30T02:27:48;7.37;;;4.40;;
16093;SDS011;8151;47.824;12.092;2023-04-30T02:30:20;4.00;;;3.60;;
16093;SDS011;8151;47.824;12.092;2023-04-30T02:32:48;4.53;;;3.70;;
16093;SDS011;8151;47.824;12.092;2023-04-30T02:35:18;5.33;;;4.80;;
16093;SDS011;8151;47.824;12.092;2023-04-30T02:37:46;11.60;;;8.43;;
16093;SDS011;8151;47.824;12.092;2023-04-30T02:40:15;9.70;;;7.77;;
16093;SDS011;8151;47.824;12.092;2023-04-30T02:42:43;5.80;;;5.17;;
16093;SDS011;8151;47.824;12.092;2023-04-30T02:45:12;6.67;;;5.60;;
16093;SDS011;8151;47.824;12.092;2023-04-30T02:47:40;7.83;;;5.43;;
16093;SDS011;8151;47.824;12.092;2023-04-30T02:50:09;6.43;;;4.13;;
16093;SDS011;8151;47.824;12.092;2023-04-30T02:52:43;5.13;;;4.03;;
16093;SDS011;8151;47.824;12.092;2023-04-30T02:55:19;4.93;;;3.97;;
16093;SDS011;8151;47.824;12.092;2023-04-30T02:57:47;6.23;;;4.10;;
16093;SDS011;8151;47.824;12.092;2023-04-30T03:00:16;4.87;;;4.37;;
16093;SDS011;8151;47.824;12.092;2023-04-30T03:02:44;4.73;;;3.50;;
16093;SDS011;8151;47.824;12.092;2023-04-30T03:05:13;5.40;;;4.60;;
16093;SDS011;8151;47.824;12.092;2023-04-30T03:07:43;6.37;;;5.20;;
16093;SDS011;8151;47.824;12.092;2023-04-30T03:10:11;6.17;;;5.57;;
16093;SDS011;8151;47.824;12.092;2023-04-30T03:12:40;5.97;;;4.87;;
16093;SDS011;8151;47.824;12.092;2023-04-30T03:15:09;5.30;;;4.50;;
16093;SDS011;8151;47.824;12.092;2023-04-30T03:17:40;4.70;;;4.20;;
16093;SDS011;8151;47.824;12.092;2023-04-30T03:20:12;9.63;;;8.50;;
16093;SDS011;8151;47.824;12.092;2023-04-30T03:22:40;6.83;;;5.50;;
16093;SDS011;8151;47.824;12.092;2023-04-30T03:25:10;6.33;;;5.30;;
16093;SDS011;8151;47.824;12.092;2023-04-30T03:27:40;8.13;;;5.23;;
16093;SDS011;8151;47.824;12.092;2023-04-30T03:30:08;7.03;;;5.53;;
16093;SDS011;8151;47.824;12.092;2023-04-30T03:32:37;4.83;;;4.17;;
16093;SDS011;8151;47.824;12.092;2023-04-30T03:35:06;9.93;;;5.10;;
16093;SDS011;8151;47.824;12.092;2023-04-30T03:37:35;5.97;;;4.47;;
16093;SDS011;8151;47.824;12.092;2023-04-30T03:40:04;6.73;;;4.17;;
16093;SDS011;8151;47.824;12.092;2023-04-30T03:42:35;5.30;;;4.03;;
16093;SDS011;8151;47.824;12.092;2023-04-30T03:45:03;4.30;;;3.57;;
16093;SDS011;8151;47.824;12.092;2023-04-30T03:47:34;4.50;;;4.10;;
16093;SDS011;8151;47.824;12.092;2023-04-30T03:50:03;5.70;;;4.70;;
16093;SDS011;8151;47.824;12.092;2023-04-30T03:52:32;6.63;;;4.37;;
16093;SDS011;8151;47.824;12.092;2023-04-30T03:55:00;8.23;;;6.13;;
16093;SDS011;8151;47.824;12.092;2023-04-30T03:57:29;5.53;;;4.93;;
16093;SDS011;8151;47.824;12.092;2023-04-30T03:59:59;7.13;;;6.43;;
16093;SDS011;8151;47.824;12.092;2023-04-30T04:02:27;6.07;;;5.50;;
16093;SDS011;8151;47.824;12.092;2023-04-30T04:04:58;6.17;;;4.77;;
16093;SDS011;8151;47.824;12.092;2023-04-30T04:07:27;7.07;;;5.30;;
16093;SDS011;8151;47.824;12.092;2023-04-30T04:09:55;9.07;;;6.57;;
16093;SDS011;8151;47.824;12.092;2023-04-30T04:12:24;4.83;;;4.33;;
16093;SDS011;8151;47.824;12.092;2023-04-30T04:14:52;8.47;;;5.53;;
16093;SDS011;8151;47.824;12.092;2023-04-30T04:17:22;10.13;;;6.57;;
16093;SDS011;8151;47.824;12.092;2023-04-30T04:19:51;8.83;;;6.20;;
16093;SDS011;8151;47.824;12.092;2023-04-30T04:22:19;5.77;;;5.17;;
16093;SDS011;8151;47.824;12.092;2023-04-30T04:24:48;6.47;;;4.73;;
16093;SDS011;8151;47.824;12.092;2023-04-30T04:27:16;5.37;;;4.87;;
16093;SDS011;8151;47.824;12.092;2023-04-30T04:29:55;4.40;;;4.00;;
16093;SDS011;8151;47.824;12.092;2023-04-30T04:32:25;5.10;;;4.53;;
16093;SDS011;8151;47.824;12.092;2023-04-30T04:34:54;5.77;;;4.57;;
16093;SDS011;8151;47.824;12.092;2023-04-30T04:37:23;6.70;;;4.97;;
16093;SDS011;8151;47.824;12.092;2023-04-30T04:39:51;7.17;;;4.80;;
16093;SDS011;8151;47.824;12.092;2023-04-30T04:42:20;5.40;;;4.60;;
16093;SDS011;8151;47.824;12.092;2023-04-30T04:44:48;4.67;;;4.17;;
16093;SDS011;8151;47.824;12.092;2023-04-30T04:47:17;10.03;;;5.40;;
16093;SDS011;8151;47.824;12.092;2023-04-30T04:49:50;6.00;;;5.03;;
16093;SDS011;8151;47.824;12.092;2023-04-30T04:52:18;5.93;;;5.33;;
16093;SDS011;8151;47.824;12.092;2023-04-30T04:54:47;6.47;;;4.60;;
16093;SDS011;8151;47.824;12.092;2023-04-30T04:57:15;7.30;;;5.50;;
16093;SDS011;8151;47.824;12.092;2023-04-30T04:59:43;6.60;;;4.77;;
16093;SDS011;8151;47.824;12.092;2023-04-30T05:02:13;6.83;;;5.00;;
16093;SDS011;8151;47.824;12.092;2023-04-30T05:04:42;8.33;;;5.83;;
16093;SDS011;8151;47.824;12.092;2023-04-30T05:07:14;7.20;;;5.67;;
16093;SDS011;8151;47.824;12.092;2023-04-30T05:09:43;5.67;;;4.40;;
16093;SDS011;8151;47.824;12.092;2023-04-30T05:12:14;4.67;;;4.17;;
16093;SDS011;8151;47.824;12.092;2023-04-30T05:14:42;5.83;;;4.80;;
16093;SDS011;8151;47.824;12.092;2023-04-30T05:17:11;5.17;;;4.60;;
16093;SDS011;8151;47.824;12.092;2023-04-30T05:19:41;6.23;;;4.10;;
16093;SDS011;8151;47.824;12.092;2023-04-30T05:22:09;5.70;;;4.03;;
16093;SDS011;8151;47.824;12.092;2023-04-30T05:24:39;5.13;;;4.27;;
16093;SDS011;8151;47.824;12.092;2023-04-30T05:27:07;5.57;;;4.10;;
16093;SDS011;8151;47.824;12.092;2023-04-30T05:29:36;6.73;;;5.23;;
16093;SDS011;8151;47.824;12.092;2023-04-30T05:32:05;6.77;;;5.97;;
16093;SDS011;8151;47.824;12.092;2023-04-30T05:34:34;6.80;;;5.70;;
16093;SDS011;8151;47.824;12.092;2023-04-30T05:37:02;5.87;;;5.27;;
16093;SDS011;8151;47.824;12.092;2023-04-30T05:39:30;6.00;;;5.17;;
16093;SDS011;8151;47.824;12.092;2023-04-30T05:42:00;12.87;;;5.20;;
16093;SDS011;8151;47.824;12.092;2023-04-30T05:44:29;7.97;;;4.80;;
16093;SDS011;8151;47.824;12.092;2023-04-30T05:46:57;8.07;;;4.97;;
16093;SDS011;8151;47.824;12.092;2023-04-30T05:49:26;5.50;;;4.43;;
16093;SDS011;8151;47.824;12.092;2023-04-30T05:51:54;5.63;;;4.17;;
16093;SDS011;8151;47.824;12.092;2023-04-30T05:54:23;6.73;;;5.13;;
16093;SDS011;8151;47.824;12.092;2023-04-30T05:56:51;5.73;;;4.93;;
16093;SDS011;8151;47.824;12.092;2023-04-30T05:59:21;4.73;;;4.30;;
16093;SDS011;8151;47.824;12.092;2023-04-30T06:01:50;8.30;;;4.40;;
16093;SDS011;8151;47.824;12.092;2023-04-30T06:04:19;8.73;;;6.33;;
16093;SDS011;8151;47.824;12.092;2023-04-30T06:06:47;8.00;;;6.07;;
16093;SDS011;8151;47.824;12.092;2023-04-30T06:09:16;5.50;;;4.50;;
16093;SDS011;8151;47.824;12.092;2023-04-30T06:11:44;4.97;;;4.37;;
16093;SDS011;8151;47.824;12.092;2023-04-30T06:14:16;5.77;;;4.97;;
16093;SDS011;8151;47.824;12.092;2023-04-30T06:16:46;6.20;;;5.20;;
16093;SDS011;8151;47.824;12.092;2023-04-30T06:19:15;8.67;;;4.80;;
16093;SDS011;8151;47.824;12.092;2023-04-30T06:21:49;5.33;;;4.60;;
16093;SDS011;8151;47.824;12.092;2023-04-30T06:24:18;7.07;;;4.57;;
16093;SDS011;8151;47.824;12.092;2023-04-30T06:26:46;5.80;;;4.60;;
16093;SDS011;8151;47.824;12.092;2023-04-30T06:29:15;5.33;;;4.70;;
16093;SDS011;8151;47.824;12.092;2023-04-30T06:31:43;5.97;;;5.20;;
16093;SDS011;8151;47.824;12.092;2023-04-30T06:34:16;6.00;;;4.90;;
16093;SDS011;8151;47.824;12.092;2023-04-30T06:36:44;6.20;;;4.40;;
16093;SDS011;8151;47.824;12.092;2023-04-30T06:39:13;7.10;;;4.57;;
16093;SDS011;8151;47.824;12.092;2023-04-30T06:41:44;6.90;;;5.13;;
16093;SDS011;8151;47.824;12.092;2023-04-30T06:44:13;6.50;;;4.73;;
16093;SDS011;8151;47.824;12.092;2023-04-30T06:46:44;6.53;;;5.53;;
16093;SDS011;8151;47.824;12.092;2023-04-30T06:49:17;7.30;;;5.47;;
16093;SDS011;8151;47.824;12.092;2023-04-30T06:51:45;8.33;;;5.90;;
16093;SDS011;8151;47.824;12.092;2023-04-30T06:54:14;6.17;;;5.00;;
16093;SDS011;8151;47.824;12.092;2023-04-30T06:56:43;5.63;;;4.70;;
16093;SDS011;8151;47.824;12.092;2023-04-30T06:59:12;5.17;;;4.67;;
16093;SDS011;8151;47.824;12.092;2023-04-30T07:01:43;5.50;;;4.83;;
16093;SDS011;8151;47.824;12.092;2023-04-30T07:04:12;10.80;;;8.33;;
16093;SDS011;8151;47.824;12.092;2023-04-30T07:06:48;8.63;;;6.97;;
16093;SDS011;8151;47.824;12.092;2023-04-30T07:09:17;6.00;;;5.37;;
16093;SDS011;8151;47.824;12.092;2023-04-30T07:11:46;6.90;;;6.20;;
16093;SDS011;8151;47.824;12.092;2023-04-30T07:14:15;17.83;;;13.87;;
16093;SDS011;8151;47.824;12.092;2023-04-30T07:16:43;6.40;;;5.27;;
16093;SDS011;8151;47.824;12.092;2023-04-30T07:19:12;6.23;;;5.47;;
16093;SDS011;8151;47.824;12.092;2023-04-30T07:21:43;7.53;;;6.10;;
16093;SDS011;8151;47.824;12.092;2023-04-30T07:24:13;7.77;;;5.60;;
16093;SDS011;8151;47.824;12.092;2023-04-30T07:26:43;5.73;;;5.13;;
16093;SDS011;8151;47.824;12.092;2023-04-30T07:29:12;7.07;;;5.83;;
16093;SDS011;8151;47.824;12.092;2023-04-30T07:31:42;7.57;;;5.97;;
16093;SDS011;8151;47.824;12.092;2023-04-30T07:34:10;6.63;;;5.30;;
16093;SDS011;8151;47.824;12.092;2023-04-30T07:36:39;6.40;;;5.47;;
16093;SDS011;8151;47.824;12.092;2023-04-30T07:39:08;8.73;;;6.20;;
16093;SDS011;8151;47.824;12.092;2023-04-30T07:41:39;5.93;;;5.33;;
16093;SDS011;8151;47.824;12.092;2023-04-30T07:44:07;7.83;;;5.87;;
16093;SDS011;8151;47.824;12.092;2023-04-30T07:46:37;6.87;;;5.60;;
16093;SDS011;8151;47.824;12.092;2023-04-30T07:49:06;6.57;;;5.67;;
16093;SDS011;8151;47.824;12.092;2023-04-30T07:51:34;8.67;;;7.13;;
16093;SDS011;8151;47.824;12.092;2023-04-30T07:54:03;11.40;;;8.90;;
16093;SDS011;8151;47.824;12.092;2023-04-30T07:56:31;11.13;;;8.40;;
16093;SDS011;8151;47.824;12.092;2023-04-30T07:59:01;18.50;;;11.73;;
16093;SDS011;8151;47.824;12.092;2023-04-30T08:01:30;8.07;;;6.13;;
16093;SDS011;8151;47.824;12.092;2023-04-30T08:03:58;14.37;;;9.93;;
16093;SDS011;8151;47.824;12.092;2023-04-30T08:06:27;13.40;;;9.83;;
16093;SDS011;8151;47.824;12.092;2023-04-30T08:08:55;9.10;;;6.57;;
16093;SDS011;8151;47.824;12.092;2023-04-30T08:11:24;7.17;;;6.07;;
16093;SDS011;8151;47.824;12.092;2023-04-30T08:13:55;6.27;;;5.23;;
16093;SDS011;8151;47.824;12.092;2023-04-30T08:16:25;6.33;;;4.97;;
16093;SDS011;8151;47.824;12.092;2023-04-30T08:18:54;17.47;;;9.93;;
16093;SDS011;8151;47.824;12.092;2023-04-30T08:21:23;7.83;;;6.90;;
16093;SDS011;8151;47.824;12.092;2023-04-30T08:23:53;8.07;;;5.53;;
16093;SDS011;8151;47.824;12.092;2023-04-30T08:26:23;15.73;;;12.10;;
16093;SDS011;8151;47.824;12.092;2023-04-30T08:28:52;6.10;;;5.07;;
16093;SDS011;8151;47.824;12.092;2023-04-30T08:31:21;5.90;;;5.27;;
16093;SDS011;8151;47.824;12.092;2023-04-30T08:33:51;6.53;;;5.50;;
16093;SDS011;8151;47.824;12.092;2023-04-30T08:36:19;7.07;;;5.90;;
16093;SDS011;8151;47.824;12.092;2023-04-30T08:38:47;6.50;;;5.30;;
16093;SDS011;8151;47.824;12.092;2023-04-30T08:41:17;7.00;;;5.87;;
16093;SDS011;8151;47.824;12.092;2023-04-30T08:43:50;5.73;;;4.40;;
16093;SDS011;8151;47.824;12.092;2023-04-30T08:46:20;9.73;;;7.80;;
16093;SDS011;8151;47.824;12.092;2023-04-30T08:48:51;9.33;;;6.93;;
16093;SDS011;8151;47.824;12.092;2023-04-30T08:51:20;4.77;;;4.20;;
16093;SDS011;8151;47.824;12.092;2023-04-30T08:53:49;7.23;;;5.33;;
16093;SDS011;8151;47.824;12.092;2023-04-30T08:56:20;4.77;;;4.20;;
16093;SDS011;8151;47.824;12.092;2023-04-30T08:58:51;6.07;;;4.53;;
16093;SDS011;8151;47.824;12.092;2023-04-30T09:01:19;6.70;;;5.67;;
16093;SDS011;8151;47.824;12.092;2023-04-30T09:03:48;4.90;;;4.40;;
16093;SDS011;8151;47.824;12.092;2023-04-30T09:06:18;11.67;;;8.70;;
16093;SDS011;8151;47.824;12.092;2023-04-30T09:08:47;6.60;;;5.53;;
16093;SDS011;8151;47.824;12.092;2023-04-30T09:11:20;7.27;;;6.10;;
16093;SDS011;8151;47.824;12.092;2023-04-30T09:13:50;4.47;;;4.07;;
16093;SDS011;8151;47.824;12.092;2023-04-30T09:16:19;8.53;;;6.80;;
16093;SDS011;8151;47.824;12.092;2023-04-30T09:18:48;4.73;;;4.33;;
16093;SDS011;8151;47.824;12.092;2023-04-30T09:21:29;5.90;;;5.03;;
16093;SDS011;8151;47.824;12.092;2023-04-30T09:24:00;4.47;;;4.07;;
16093;SDS011;8151;47.824;12.092;2023-04-30T09:26:30;5.77;;;4.80;;
16093;SDS011;8151;47.824;12.092;2023-04-30T09:29:00;4.40;;;4.00;;
16093;SDS011;8151;47.824;12.092;2023-04-30T09:31:33;4.37;;;3.83;;
16093;SDS011;8151;47.824;12.092;2023-04-30T09:34:03;4.53;;;3.70;;
16093;SDS011;8151;47.824;12.092;2023-04-30T09:36:33;5.50;;;4.60;;
16093;SDS011;8151;47.824;12.092;2023-04-30T09:39:05;7.17;;;6.27;;
16093;SDS011;8151;47.824;12.092;2023-04-30T09:41:37;17.23;;;13.43;;
16093;SDS011;8151;47.824;12.092;2023-04-30T09:44:06;16.73;;;13.00;;
16093;SDS011;8151;47.824;12.092;2023-04-30T09:46:34;8.70;;;6.80;;
16093;SDS011;8151;47.824;12.092;2023-04-30T09:49:04;4.50;;;4.10;;
16093;SDS011;8151;47.824;12.092;2023-04-30T09:51:35;5.27;;;4.40;;
16093;SDS011;8151;47.824;12.092;2023-04-30T09:54:21;6.90;;;4.97;;
16093;SDS011;8151;47.824;12.092;2023-04-30T09:56:52;4.37;;;3.97;;
16093;SDS011;8151;47.824;12.092;2023-04-30T09:59:22;4.20;;;3.80;;
16093;SDS011;8151;47.824;12.092;2023-04-30T10:01:57;5.27;;;4.30;;
16093;SDS011;8151;47.824;12.092;2023-04-30T10:04:28;4.07;;;3.70;;
16093;SDS011;8151;47.824;12.092;2023-04-30T10:07:01;8.57;;;5.67;;
16093;SDS011;8151;47.824;12.092;2023-04-30T10:09:35;5.40;;;3.90;;
16093;SDS011;8151;47.824;12.092;2023-04-30T10:12:11;4.30;;;3.73;;
16093;SDS011;8151;47.824;12.092;2023-04-30T10:14:44;3.50;;;3.20;;
16093;SDS011;8151;47.824;12.092;2023-04-30T10:17:18;5.00;;;4.33;;
16093;SDS011;8151;47.824;12.092;2023-04-30T10:20:01;5.00;;;4.50;;
16093;SDS011;8151;47.824;12.092;2023-04-30T10:22:35;3.83;;;3.53;;
16093;SDS011;8151;47.824;12.092;2023-04-30T10:25:04;4.50;;;4.07;;
16093;SDS011;8151;47.824;12.092;2023-04-30T10:27:37;6.90;;;5.00;;
16093;SDS011;8151;47.824;12.092;2023-04-30T10:30:06;4.30;;;3.90;;
16093;SDS011;8151;47.824;12.092;2023-04-30T10:32:40;9.33;;;5.90;;
16093;SDS011;8151;47.824;12.092;2023-04-30T10:35:15;6.80;;;6.10;;
16093;SDS011;8151;47.824;12.092;2023-04-30T10:37:52;4.67;;;3.53;;
16093;SDS011;8151;47.824;12.092;2023-04-30T10:40:26;4.30;;;3.90;;
16093;SDS011;8151;47.824;12.092;2023-04-30T10:42:54;4.20;;;3.70;;
16093;SDS011;8151;47.824;12.092;2023-04-30T10:45:33;7.23;;;5.50;;
16093;SDS011;8151;47.824;12.092;2023-04-30T10:48:03;3.53;;;3.23;;
16093;SDS011;8151;47.824;12.092;2023-04-30T10:50:32;3.53;;;3.23;;
16093;SDS011;8151;47.824;12.092;2023-04-30T10:53:11;3.70;;;3.40;;
16093;SDS011;8151;47.824;12.092;2023-04-30T10:55:46;3.10;;;2.90;;
16093;SDS011;8151;47.824;12.092;2023-04-30T10:58:22;4.07;;;2.93;;
16093;SDS011;8151;47.824;12.092;2023-04-30T11:00:59;3.70;;;3.20;;
16093;SDS011;8151;47.824;12.092;2023-04-30T11:03:28;3.30;;;3.00;;
16093;SDS011;8151;47.824;12.092;2023-04-30T11:05:58;3.53;;;3.23;;
16093;SDS011;8151;47.824;12.092;2023-04-30T11:08:34;4.27;;;3.70;;
16093;SDS011;8151;47.824;12.092;2023-04-30T11:11:03;5.27;;;3.33;;
16093;SDS011;8151;47.824;12.092;2023-04-30T11:13:38;3.93;;;2.80;;
16093;SDS011;8151;47.824;12.092;2023-04-30T11:16:08;3.30;;;3.00;;
16093;SDS011;8151;47.824;12.092;2023-04-30T11:18:40;3.70;;;3.30;;
16093;SDS011;8151;47.824;12.092;2023-04-30T11:21:10;6.17;;;3.87;;
16093;SDS011;8151;47.824;12.092;2023-04-30T11:23:41;3.10;;;2.73;;
16093;SDS011;8151;47.824;12.092;2023-04-30T11:26:10;3.13;;;2.47;;
16093;SDS011;8151;47.824;12.092;2023-04-30T11:28:38;3.83;;;2.60;;
16093;SDS011;8151;47.824;12.092;2023-04-30T11:31:18;3.10;;;2.80;;
16093;SDS011;8151;47.824;12.092;2023-04-30T11:33:46;3.10;;;2.87;;
16093;SDS011;8151;47.824;12.092;2023-04-30T11:36:16;2.70;;;2.50;;
16093;SDS011;8151;47.824;12.092;2023-04-30T11:38:48;3.20;;;2.83;;
16093;SDS011;8151;47.824;12.092;2023-04-30T11:41:18;2.83;;;2.63;;
16093;SDS011;8151;47.824;12.092;2023-04-30T11:43:48;2.60;;;2.40;;
16093;SDS011;8151;47.824;12.092;2023-04-30T11:46:18;3.87;;;2.57;;
16093;SDS011;8151;47.824;12.092;2023-04-30T11:48:47;4.10;;;3.70;;
16093;SDS011;8151;47.824;12.092;2023-04-30T11:51:16;5.43;;;4.07;;
16093;SDS011;8151;47.824;12.092;2023-04-30T11:53:49;2.80;;;2.50;;
16093;SDS011;8151;47.824;12.092;2023-04-30T11:56:19;5.13;;;2.70;;
16093;SDS011;8151;47.824;12.092;2023-04-30T11:58:48;2.77;;;2.57;;
16093;SDS011;8151;47.824;12.092;2023-04-30T12:01:18;3.63;;;2.40;;
16093;SDS011;8151;47.824;12.092;2023-04-30T12:03:48;2.70;;;2.50;;
16093;SDS011;8151;47.824;12.092;2023-04-30T12:06:22;3.83;;;2.63;;
16093;SDS011;8151;47.824;12.092;2023-04-30T12:08:53;2.43;;;2.23;;
16093;SDS011;8151;47.824;12.092;2023-04-30T12:11:23;2.83;;;2.50;;
16093;SDS011;8151;47.824;12.092;2023-04-30T12:13:54;2.60;;;2.27;;
16093;SDS011;8151;47.824;12.092;2023-04-30T12:16:24;2.40;;;2.20;;
16093;SDS011;8151;47.824;12.092;2023-04-30T12:18:52;2.40;;;2.20;;
16093;SDS011;8151;47.824;12.092;2023-04-30T12:21:21;2.07;;;1.97;;
16093;SDS011;8151;47.824;12.092;2023-04-30T12:23:50;2.33;;;2.10;;
16093;SDS011;8151;47.824;12.092;2023-04-30T12:26:20;4.13;;;2.47;;
16093;SDS011;8151;47.824;12.092;2023-04-30T12:28:50;2.77;;;2.17;;
16093;SDS011;8151;47.824;12.092;2023-04-30T12:31:19;2.57;;;2.10;;
16093;SDS011;8151;47.824;12.092;2023-04-30T12:33:53;3.77;;;2.77;;
16093;SDS011;8151;47.824;12.092;2023-04-30T12:36:28;2.70;;;2.50;;
16093;SDS011;8151;47.824;12.092;2023-04-30T12:39:02;2.43;;;2.30;;
16093;SDS011;8151;47.824;12.092;2023-04-30T12:41:40;2.53;;;2.20;;
16093;SDS011;8151;47.824;12.092;2023-04-30T12:44:13;2.40;;;2.20;;
16093;SDS011;8151;47.824;12.092;2023-04-30T12:46:47;2.60;;;2.40;;
16093;SDS011;8151;47.824;12.092;2023-04-30T12:49:23;5.00;;;2.10;;
16093;SDS011;8151;47.824;12.092;2023-04-30T12:51:56;3.03;;;2.23;;
16093;SDS011;8151;47.824;12.092;2023-04-30T12:54:27;3.13;;;2.57;;
16093;SDS011;8151;47.824;12.092;2023-04-30T12:56:59;2.17;;;2.00;;
16093;SDS011;8151;47.824;12.092;2023-04-30T12:59:29;2.60;;;2.30;;
16093;SDS011;8151;47.824;12.092;2023-04-30T13:02:08;2.60;;;2.40;;
16093;SDS011;8151;47.824;12.092;2023-04-30T13:04:38;2.27;;;2.07;;
16093;SDS011;8151;47.824;12.092;2023-04-30T13:07:07;2.23;;;2.13;;
16093;SDS011;8151;47.824;12.092;2023-04-30T13:09:37;2.33;;;1.93;;
16093;SDS011;8151;47.824;12.092;2023-04-30T13:12:07;2.60;;;2.40;;
16093;SDS011;8151;47.824;12.092;2023-04-30T13:14:36;3.23;;;2.47;;
16093;SDS011;8151;47.824;12.092;2023-04-30T13:17:04;6.30;;;3.70;;
16093;SDS011;8151;47.824;12.092;2023-04-30T13:19:43;5.83;;;3.20;;
16093;SDS011;8151;47.824;12.092;2023-04-30T13:22:11;2.90;;;2.70;;
16093;SDS011;8151;47.824;12.092;2023-04-30T13:24:40;4.80;;;3.83;;
16093;SDS011;8151;47.824;12.092;2023-04-30T13:27:10;2.70;;;2.50;;
16093;SDS011;8151;47.824;12.092;2023-04-30T13:29:42;2.83;;;2.63;;
16093;SDS011;8151;47.824;12.092;2023-04-30T13:32:11;5.50;;;2.40;;
16093;SDS011;8151;47.824;12.092;2023-04-30T13:34:39;2.37;;;2.20;;
16093;SDS011;8151;47.824;12.092;2023-04-30T13:37:07;2.30;;;2.10;;
16093;SDS011;8151;47.824;12.092;2023-04-30T13:39:36;2.43;;;2.23;;
16093;SDS011;8151;47.824;12.092;2023-04-30T13:42:04;2.57;;;2.10;;
16093;SDS011;8151;47.824;12.092;2023-04-30T13:44:34;2.57;;;2.37;;
16093;SDS011;8151;47.824;12.092;2023-04-30T13:47:03;2.30;;;2.10;;
16093;SDS011;8151;47.824;12.092;2023-04-30T13:49:31;2.60;;;2.40;;
16093;SDS011;8151;47.824;12.092;2023-04-30T13:52:01;4.17;;;2.50;;
16093;SDS011;8151;47.824;12.092;2023-04-30T13:54:30;2.63;;;2.43;;
16093;SDS011;8151;47.824;12.092;2023-04-30T13:56:58;2.97;;;1.97;;
16093;SDS011;8151;47.824;12.092;2023-04-30T13:59:27;3.30;;;2.43;;
16093;SDS011;8151;47.824;12.092;2023-04-30T14:01:57;4.23;;;3.83;;
16093;SDS011;8151;47.824;12.092;2023-04-30T14:04:25;3.00;;;2.70;;
16093;SDS011;8151;47.824;12.092;2023-04-30T14:06:54;2.70;;;2.50;;
16093;SDS011;8151;47.824;12.092;2023-04-30T14:09:23;3.37;;;2.80;;
16093;SDS011;8151;47.824;12.092;2023-04-30T14:11:52;2.40;;;2.20;;
16093;SDS011;8151;47.824;12.092;2023-04-30T14:14:21;2.60;;;2.40;;
16093;SDS011;8151;47.824;12.092;2023-04-30T14:16:50;2.87;;;2.47;;
16093;SDS011;8151;47.824;12.092;2023-04-30T14:19:21;4.80;;;3.23;;
16093;SDS011;8151;47.824;12.092;2023-04-30T14:21:50;3.50;;;3.10;;
16093;SDS011;8151;47.824;12.092;2023-04-30T14:24:19;2.90;;;2.13;;
16093;SDS011;8151;47.824;12.092;2023-04-30T14:26:48;2.63;;;2.40;;
16093;SDS011;8151;47.824;12.092;2023-04-30T14:29:16;3.50;;;2.93;;
16093;SDS011;8151;47.824;12.092;2023-04-30T14:31:47;2.37;;;2.17;;
16093;SDS011;8151;47.824;12.092;2023-04-30T14:34:16;5.43;;;3.27;;
16093;SDS011;8151;47.824;12.092;2023-04-30T14:36:47;5.90;;;4.23;;
16093;SDS011;8151;47.824;12.092;2023-04-30T14:39:15;3.97;;;3.40;;
16093;SDS011;8151;47.824;12.092;2023-04-30T14:41:44;2.63;;;2.23;;
16093;SDS011;8151;47.824;12.092;2023-04-30T14:44:12;2.80;;;2.60;;
16093;SDS011;8151;47.824;12.092;2023-04-30T14:46:41;2.90;;;2.70;;
16093;SDS011;8151;47.824;12.092;2023-04-30T14:49:09;2.83;;;2.63;;
16093;SDS011;8151;47.824;12.092;2023-04-30T14:51:38;2.40;;;2.20;;
16093;SDS011;8151;47.824;12.092;2023-04-30T14:54:08;2.67;;;2.30;;
16093;SDS011;8151;47.824;12.092;2023-04-30T14:56:36;2.43;;;2.23;;
16093;SDS011;8151;47.824;12.092;2023-04-30T14:59:05;2.50;;;2.30;;
16093;SDS011;8151;47.824;12.092;2023-04-30T15:01:34;3.13;;;2.57;;
16093;SDS011;8151;47.824;12.092;2023-04-30T15:04:02;2.70;;;2.37;;
16093;SDS011;8151;47.824;12.092;2023-04-30T15:06:31;8.37;;;3.23;;